Time;durP1;ratioP1;P1;durP2;ratioP2;P2;SDS_P1;SDS_P2;PMS_P1;PMS_P2;Temp;Humidity;BMP_temperature;BMP_pressure;BME280_temperature;BME280_humidity;BME280_pressure;Samples;Min_cycle;Max_cycle;Signal;HPM_P1;HPM_P2
2023/01/05 00:03:15;;;;;;;5.38;1.85;;;;;;;9.41;100.00;99954.88;5007826;28;20048;-66
2023/01/05 01:39:16;;;;;;;11.65;2.45;;;;;;;9.47;100.00;99965.00;5009556;28;20056;-66
2023/01/05 06:21:21;;;;;;;4.25;1.20;;;;;;;8.55;100.00;100066.06;5003355;28;20057;-64
2023/01/05 06:45:37;;;;;;;4.63;1.00;;;;;;;8.27;100.00;100092.19;5012168;28;20132;-64
2023/01/05 06:48:04;;;;;;;2.33;0.65;;;;;;;8.26;100.00;100093.13;5007568;28;20050;-63
2023/01/05 06:50:32;;;;;;;3.63;0.68;;;;;;;8.33;100.00;100112.81;5010903;28;20050;-63
2023/01/05 06:52:59;;;;;;;3.33;1.02;;;;;;;8.35;100.00;100106.56;5012788;28;20194;-64
2023/01/05 06:55:26;;;;;;;2.05;0.60;;;;;;;8.43;100.00;100119.25;5018239;28;20060;-63
2023/01/05 06:57:53;;;;;;;2.40;0.80;;;;;;;8.41;100.00;100109.78;5022020;28;20289;-62
2023/01/05 07:00:27;;;;;;;2.13;0.60;;;;;;;8.41;100.00;100109.78;5027905;28;20058;-63
2023/01/05 07:02:55;;;;;;;3.63;0.90;;;;;;;8.45;100.00;100153.25;5034185;28;20066;-64
2023/01/05 07:05:23;;;;;;;3.65;0.93;;;;;;;8.49;100.00;100112.81;5029629;28;20060;-63
2023/01/05 07:07:50;;;;;;;3.67;0.70;;;;;;;8.51;100.00;100105.69;5017294;28;20463;-64
2023/01/05 07:10:17;;;;;;;3.88;0.82;;;;;;;8.48;100.00;100105.88;5012721;28;20137;-63
2023/01/05 07:12:45;;;;;;;1.38;0.77;;;;;;;8.47;100.00;100122.56;4998909;28;20057;-64
2023/01/05 07:15:12;;;;;;;1.90;0.90;;;;;;;8.48;100.00;100140.81;5026994;28;20068;-64
2023/01/05 07:17:39;;;;;;;4.38;0.70;;;;;;;8.50;100.00;100123.19;5014639;28;20544;-64
2023/01/05 07:20:08;;;;;;;5.25;0.95;;;;;;;8.52;100.00;100139.72;5027566;28;20152;-63
2023/01/05 07:22:35;;;;;;;5.95;1.10;;;;;;;8.47;100.00;100140.91;5028380;28;20149;-63
2023/01/05 07:25:02;;;;;;;6.30;0.90;;;;;;;8.49;100.00;100102.31;5016359;28;20052;-63
2023/01/05 07:27:30;;;;;;;3.30;0.75;;;;;;;8.48;100.00;100138.19;5017105;28;20564;-63
2023/01/05 07:29:57;;;;;;;2.10;0.63;;;;;;;8.49;100.00;100160.03;5022146;28;20074;-64
2023/01/05 07:32:24;;;;;;;1.63;0.73;;;;;;;8.51;100.00;100138.03;5025363;28;20050;-63
2023/01/05 07:34:52;;;;;;;3.22;0.73;;;;;;;8.53;100.00;100144.03;5021837;28;20141;-64
2023/01/05 07:37:23;;;;;;;2.10;0.65;;;;;;;8.48;100.00;100156.56;5019800;28;20080;-64
2023/01/05 07:39:51;;;;;;;3.65;0.75;;;;;;;8.42;100.00;100149.06;5011683;28;20456;-64
2023/01/05 07:42:19;;;;;;;1.70;0.85;;;;;;;8.39;99.46;100164.97;5015997;28;20088;-64
2023/01/05 07:44:46;;;;;;;1.05;0.60;;;;;;;8.34;98.88;100159.94;5010225;28;20057;-64
2023/01/05 07:47:13;;;;;;;2.05;0.70;;;;;;;8.33;98.71;100167.88;5015618;28;20077;-64
2023/01/05 07:49:40;;;;;;;2.42;0.82;;;;;;;8.31;99.16;100173.22;5026445;28;20061;-64
2023/01/05 07:52:08;;;;;;;4.10;0.55;;;;;;;8.28;99.24;100157.66;5004600;28;20056;-64
2023/01/05 07:54:35;;;;;;;1.95;0.50;;;;;;;8.30;99.55;100174.16;5014106;28;20730;-64
2023/01/05 07:57:03;;;;;;;1.15;0.40;;;;;;;8.31;97.69;100180.25;5004997;28;20081;-64
2023/01/05 07:59:30;;;;;;;2.67;0.50;;;;;;;8.28;96.64;100196.16;5005460;28;20064;-65
2023/01/05 08:01:57;;;;;;;1.95;0.70;;;;;;;8.23;97.68;100200.81;4999282;28;20064;-65
2023/01/05 08:04:25;;;;;;;0.95;0.40;;;;;;;8.22;97.48;100194.72;4995402;28;20048;-63
2023/01/05 08:06:52;;;;;;;6.70;1.08;;;;;;;8.23;97.79;100196.41;4995475;28;20066;-64
2023/01/05 08:12:05;;;;;;;1.50;0.40;;;;;;;8.22;96.57;100223.56;4994597;28;20046;-62
2023/01/05 08:14:32;;;;;;;3.03;0.50;;;;;;;8.19;96.33;100215.84;5001649;28;20434;-65
2023/01/05 08:17:00;;;;;;;4.28;0.50;;;;;;;8.17;95.12;100235.25;5015676;28;20057;-66
2023/01/05 08:19:28;;;;;;;2.20;0.63;;;;;;;8.26;95.45;100258.34;5007526;28;20099;-66
2023/01/05 08:21:55;;;;;;;2.03;0.52;;;;;;;8.25;95.07;100233.91;5007988;28;20268;-65
2023/01/05 08:24:23;;;;;;;1.05;0.88;;;;;;;8.25;94.53;100226.03;5003996;28;20048;-66
2023/01/05 08:26:50;;;;;;;2.55;0.60;;;;;;;8.22;94.07;100241.91;5009020;28;20068;-65
2023/01/05 08:29:17;;;;;;;1.67;0.68;;;;;;;8.19;94.51;100239.47;4994722;28;20050;-65
2023/01/05 08:31:45;;;;;;;1.08;0.57;;;;;;;8.19;94.55;100257.81;5003674;28;20064;-63
2023/01/05 08:34:12;;;;;;;1.42;0.50;;;;;;;8.16;94.98;100233.56;5005898;28;20049;-63
2023/01/05 08:36:39;;;;;;;1.33;0.45;;;;;;;8.16;95.06;100260.63;5007483;28;20065;-62
2023/01/05 08:39:09;;;;;;;1.05;0.38;;;;;;;8.13;95.06;100269.50;5004351;28;20140;-62
2023/01/05 08:41:38;;;;;;;0.95;0.50;;;;;;;8.13;93.72;100264.25;4988918;28;20128;-62
2023/01/05 08:44:10;;;;;;;2.05;0.50;;;;;;;8.13;95.19;100258.16;5007931;28;20120;-63
2023/01/05 08:46:37;;;;;;;3.28;0.40;;;;;;;8.10;94.94;100266.19;5001920;28;20057;-62
2023/01/05 08:49:06;;;;;;;1.65;0.47;;;;;;;8.12;95.21;100261.72;5003951;28;20052;-63
2023/01/05 08:51:33;;;;;;;3.30;0.65;;;;;;;8.19;94.15;100257.81;5002490;28;20049;-63
2023/01/05 08:54:00;;;;;;;4.38;0.60;;;;;;;8.19;94.50;100270.06;5008175;28;20046;-63
2023/01/05 08:56:27;;;;;;;1.48;0.65;;;;;;;8.13;94.90;100272.09;5003434;28;20073;-63
2023/01/05 08:59:04;;;;;;;2.60;0.93;;;;;;;8.15;93.50;100271.16;4993989;28;20790;-62
2023/01/05 09:01:31;;;;;;;1.45;0.65;;;;;;;8.10;93.58;100272.28;5005030;28;20613;-64
2023/01/05 09:03:59;;;;;;;1.20;0.93;;;;;;;8.13;93.85;100273.88;5000249;28;20081;-64
2023/01/05 09:06:26;;;;;;;3.60;1.17;;;;;;;8.10;94.34;100263.56;5002894;28;20050;-65
2023/01/05 09:08:53;;;;;;;2.47;0.50;;;;;;;8.06;93.48;100280.38;4992069;28;20093;-64
2023/01/05 09:11:23;;;;;;;0.95;0.43;;;;;;;8.05;93.40;100292.66;5005106;28;20072;-63
2023/01/05 09:13:53;;;;;;;3.10;0.65;;;;;;;7.99;93.69;100279.88;5001946;28;20598;-62
2023/01/05 09:16:23;;;;;;;1.73;0.55;;;;;;;7.98;93.18;100301.78;5011310;28;20538;-63
2023/01/05 09:19:10;;;;;;;5.03;0.90;;;;;;;8.01;92.80;100314.72;5000245;28;20073;-62
2023/01/05 09:21:40;;;;;;;4.72;0.65;;;;;;;8.00;93.04;100301.69;5006554;28;20132;-62
2023/01/05 09:24:11;;;;;;;2.20;0.77;;;;;;;7.97;92.45;100314.94;5013863;28;20073;-61
2023/01/05 09:26:39;;;;;;;2.35;0.90;;;;;;;7.99;93.29;100319.19;4989481;28;20176;-62
2023/01/05 09:29:07;;;;;;;4.30;0.68;;;;;;;8.01;92.67;100319.94;4994297;28;20066;-63
2023/01/05 09:31:34;;;;;;;3.40;0.95;;;;;;;7.99;91.71;100319.19;4992612;28;20122;-63
2023/01/05 09:34:01;;;;;;;1.98;0.60;;;;;;;8.02;91.96;100331.31;4995325;28;20053;-61
2023/01/05 09:36:28;;;;;;;3.25;0.52;;;;;;;7.99;91.69;100320.97;4991273;28;20210;-63
2023/01/05 09:38:56;;;;;;;3.97;1.08;;;;;;;8.01;90.29;100333.06;4998947;28;20062;-63
2023/01/05 09:41:38;;;;;;;5.07;0.68;;;;;;;8.05;89.24;100316.25;4999705;28;20057;-63
2023/01/05 09:44:37;;;;;;;3.05;0.93;;;;;;;8.08;88.38;100342.31;4986547;28;20062;-63
2023/01/05 09:47:31;;;;;;;1.98;0.60;;;;;;;8.10;87.36;100331.72;4994217;28;20056;-63
2023/01/05 09:49:59;;;;;;;3.22;0.70;;;;;;;8.12;86.88;100351.69;5012962;28;20153;-61
2023/01/05 09:52:27;;;;;;;4.30;0.95;;;;;;;8.14;86.35;100349.00;5003238;28;20770;-62
2023/01/05 09:55:03;;;;;;;3.65;1.17;;;;;;;8.16;85.39;100355.00;4993895;28;20582;-62
2023/01/05 09:57:30;;;;;;;3.67;0.55;;;;;;;8.19;84.27;100359.22;5025246;28;20061;-62
2023/01/05 10:00:04;;;;;;;5.43;1.30;;;;;;;8.24;84.10;100368.56;4998593;28;20139;-63
2023/01/05 10:02:46;;;;;;;3.65;0.82;;;;;;;8.33;84.27;100346.22;4998208;28;20383;-61
2023/01/05 10:05:14;;;;;;;3.80;0.82;;;;;;;8.41;84.27;100337.97;5002211;28;20671;-64
2023/01/05 10:07:46;;;;;;;4.97;0.82;;;;;;;8.39;82.60;100363.47;5009717;28;20408;-61
2023/01/05 10:10:26;;;;;;;1.45;0.57;;;;;;;8.39;82.40;100368.69;5008712;28;20098;-63
2023/01/05 10:13:01;;;;;;;5.38;0.98;;;;;;;8.41;82.03;100370.28;5015094;28;20132;-62
2023/01/05 10:15:36;;;;;;;4.53;0.88;;;;;;;8.35;81.37;100354.88;5000483;28;20132;-62
2023/01/05 10:18:12;;;;;;;6.07;1.00;;;;;;;8.39;81.84;100356.44;5000367;28;20145;-63
2023/01/05 10:21:07;;;;;;;5.13;1.20;;;;;;;8.39;81.63;100372.16;4995605;28;20057;-64
2023/01/05 10:23:52;;;;;;;7.05;1.55;;;;;;;8.44;82.08;100364.91;5000421;28;20153;-64
2023/01/05 10:26:25;;;;;;;6.27;0.93;;;;;;;8.41;81.52;100349.31;5000609;28;20171;-63
2023/01/05 10:29:12;;;;;;;9.02;1.73;;;;;;;8.49;82.17;100370.75;5007591;28;20046;-63
2023/01/05 10:31:57;;;;;;;3.28;0.85;;;;;;;8.56;80.34;100379.13;5001991;28;20050;-62
2023/01/05 10:35:03;;;;;;;6.18;1.33;;;;;;;8.50;79.24;100374.19;4985797;28;20069;-63
2023/01/05 10:37:55;;;;;;;7.35;1.40;;;;;;;8.57;79.22;100378.19;5005407;28;20140;-62
2023/01/05 10:40:37;;;;;;;5.25;1.00;;;;;;;8.57;78.55;100368.53;5003401;28;20056;-62
2023/01/05 10:43:38;;;;;;;3.58;0.82;;;;;;;8.60;78.52;100371.00;4987036;28;20084;-63
2023/01/05 10:46:09;;;;;;;5.30;1.05;;;;;;;8.61;78.19;100369.22;4991927;28;20053;-64
2023/01/05 10:48:56;;;;;;;5.57;1.10;;;;;;;8.65;77.66;100368.13;4997383;28;20061;-61
2023/01/05 10:51:24;;;;;;;7.13;1.10;;;;;;;8.71;77.91;100357.28;4991451;28;20084;-63
2023/01/05 10:53:52;;;;;;;10.18;1.33;;;;;;;8.76;76.85;100388.53;5007519;28;20053;-64
2023/01/05 10:56:28;;;;;;;6.53;1.00;;;;;;;8.85;77.16;100399.38;4999422;28;20075;-63
2023/01/05 10:59:08;;;;;;;;;;;;;;;8.81;76.09;100386.50;5014534;28;20061;-63
2023/01/05 11:01:36;;;;;;;5.95;1.20;;;;;;;8.78;76.08;100395.41;5002657;28;20004;-63
2023/01/05 11:04:23;;;;;;;6.55;1.42;;;;;;;8.79;76.20;100376.09;4996335;28;20581;-63
2023/01/05 11:07:03;;;;;;;6.65;1.00;;;;;;;8.84;76.62;100412.59;5007147;28;20052;-63
2023/01/05 11:09:31;;;;;;;8.10;1.40;;;;;;;8.83;77.47;100409.13;4989240;28;20049;-63
2023/01/05 11:12:00;;;;;;;3.35;1.17;;;;;;;8.78;77.28;100410.28;5005382;28;20053;-63
2023/01/05 11:14:31;;;;;;;6.97;1.23;;;;;;;8.72;77.28;100426.38;4999995;28;20106;-63
2023/01/05 11:17:01;;;;;;;5.25;1.00;;;;;;;8.77;77.51;100400.72;4993397;28;20129;-62
2023/01/05 11:19:31;;;;;;;10.10;1.90;;;;;;;8.73;77.16;100417.56;4987221;28;20081;-63
2023/01/05 11:21:58;;;;;;;7.70;1.65;;;;;;;8.69;77.75;100414.28;4998603;28;20587;-63
2023/01/05 11:24:33;;;;;;;5.40;1.35;;;;;;;8.72;77.74;100411.47;5012535;28;20057;-62
2023/01/05 11:27:04;;;;;;;9.23;1.60;;;;;;;8.67;77.96;100413.50;5014463;28;20324;-63
2023/01/05 11:29:31;;;;;;;10.80;1.50;;;;;;;8.70;78.01;100418.59;4994102;28;20420;-63
2023/01/05 11:32:01;;;;;;;6.95;1.40;;;;;;;8.65;78.55;100428.50;5016277;28;20141;-63
2023/01/05 11:34:43;;;;;;;4.40;0.90;;;;;;;8.67;78.16;100446.75;4997253;28;20056;-64
2023/01/05 11:37:16;;;;;;;5.22;1.40;;;;;;;8.67;78.15;100447.63;5004230;28;20052;-63
2023/01/05 11:39:46;;;;;;;7.68;1.92;;;;;;;8.65;78.41;100443.41;5006483;28;20100;-63
2023/01/05 11:42:21;;;;;;;7.93;1.17;;;;;;;8.67;78.92;100450.25;5009759;28;20207;-63
2023/01/05 11:45:21;;;;;;;5.72;0.98;;;;;;;8.80;78.93;100442.56;5002886;28;20630;-63
2023/01/05 11:47:49;;;;;;;;;;;;;;;8.83;78.03;100468.66;5007877;28;20133;-62
2023/01/05 11:50:23;;;;;;;6.40;1.23;;;;;;;8.84;77.60;100476.44;5001951;28;20385;-63
2023/01/05 11:52:55;;;;;;;8.40;1.38;;;;;;;9.08;76.67;100473.38;5006395;28;20049;-63
2023/01/05 11:55:22;;;;;;;4.93;1.17;;;;;;;9.24;75.26;100479.50;5004328;28;20132;-63
2023/01/05 11:57:53;;;;;;;9.00;1.38;;;;;;;9.20;75.69;100471.88;5012576;28;20586;-63
2023/01/05 12:00:28;;;;;;;7.53;1.40;;;;;;;9.27;76.13;100486.34;5011087;28;20059;-64
2023/01/05 12:03:17;;;;;;;5.72;1.38;;;;;;;9.60;74.20;100473.94;5001376;28;20085;-64
2023/01/05 12:05:52;;;;;;;9.02;1.50;;;;;;;9.85;72.58;100485.66;5002576;28;20064;-64
2023/01/05 12:08:51;;;;;;;6.20;1.53;;;;;;;9.94;72.15;100513.19;4993328;28;20053;-64
2023/01/05 12:11:21;;;;;;;3.17;1.15;;;;;;;9.73;72.51;100504.78;4988581;28;20049;-64
2023/01/05 12:14:04;;;;;;;8.30;1.77;;;;;;;9.55;72.95;100509.31;5012368;28;20133;-63
2023/01/05 12:16:43;;;;;;;11.40;2.00;;;;;;;9.50;74.38;100500.81;4990790;28;20406;-63
2023/01/05 12:19:12;;;;;;;6.90;1.35;;;;;;;9.49;75.04;100494.72;5006880;28;20475;-63
2023/01/05 12:22:08;;;;;;;7.72;1.33;;;;;;;9.49;73.71;100502.59;5002872;28;20061;-62
2023/01/05 12:24:55;;;;;;;6.97;1.27;;;;;;;9.50;74.84;100520.09;5004689;28;20058;-63
2023/01/05 12:28:19;;;;;;;8.60;1.17;;;;;;;9.50;74.86;100525.34;5005028;28;20473;-63
2023/01/05 12:31:26;;;;;;;6.35;1.20;;;;;;;9.81;74.21;100526.19;5003340;28;20141;-64
2023/01/05 12:34:16;;;;;;;6.78;1.25;;;;;;;9.87;72.48;100539.03;5003027;28;20133;-62
2023/01/05 12:37:30;;;;;;;5.93;1.00;;;;;;;9.87;71.93;100537.22;5006973;28;20413;-63
2023/01/05 12:40:15;;;;;;;5.55;1.17;;;;;;;9.86;72.37;100551.31;5006046;28;20418;-64
2023/01/05 12:42:42;;;;;;;4.47;1.20;;;;;;;9.69;73.13;100543.53;4999311;28;20081;-64
2023/01/05 12:45:21;;;;;;;6.47;1.45;;;;;;;9.81;73.11;100558.59;5001702;28;20114;-63
2023/01/05 12:48:04;;;;;;;6.35;1.88;;;;;;;10.04;72.60;100546.78;5016907;28;20410;-61
2023/01/05 12:50:36;;;;;;;8.55;1.40;;;;;;;10.06;72.15;100552.78;4999153;28;20053;-63
2023/01/05 12:53:29;;;;;;;8.18;1.10;;;;;;;9.96;72.07;100551.63;4997863;28;20445;-64
2023/01/05 12:55:59;;;;;;;4.32;0.93;;;;;;;9.96;71.85;100571.84;5000405;28;20084;-63
2023/01/05 12:58:35;;;;;;;6.38;1.45;;;;;;;9.90;72.92;100567.75;4984765;28;20054;-63
2023/01/05 13:01:03;;;;;;;6.57;1.25;;;;;;;9.68;71.59;100585.66;5010536;28;20060;-63
2023/01/05 13:03:40;;;;;;;5.47;1.23;;;;;;;9.51;72.69;100590.09;5006885;28;20533;-62
2023/01/05 13:06:07;;;;;;;5.65;1.42;;;;;;;9.48;73.58;100595.50;4995999;28;20045;-62
2023/01/05 13:08:47;;;;;;;5.43;1.08;;;;;;;9.49;72.50;100597.19;5002534;28;20069;-62
2023/01/05 13:11:21;;;;;;;3.78;0.95;;;;;;;9.40;72.87;100581.94;4987657;28;20064;-62
2023/01/05 13:13:54;;;;;;;4.18;1.63;;;;;;;9.26;73.53;100608.13;4991759;28;20053;-61
2023/01/05 13:16:39;;;;;;;6.40;1.13;;;;;;;9.40;72.87;100595.06;4992973;28;20128;-60
2023/01/05 13:19:16;;;;;;;8.60;1.13;;;;;;;9.50;73.20;100603.28;5007250;28;20061;-61
2023/01/05 13:21:45;;;;;;;6.05;1.08;;;;;;;9.48;73.24;100616.53;5004985;28;20157;-61
2023/01/05 13:24:30;;;;;;;4.82;1.20;;;;;;;9.51;72.73;100608.50;4992752;28;20171;-61
2023/01/05 13:26:58;;;;;;;7.63;1.65;;;;;;;9.43;73.64;100625.59;4985729;28;20041;-62
2023/01/05 13:29:29;;;;;;;4.20;1.08;;;;;;;9.39;72.81;100625.75;4969245;28;20061;-61
2023/01/05 13:32:14;;;;;;;3.67;0.95;;;;;;;9.52;72.77;100644.34;5013461;28;20056;-60
2023/01/05 13:34:47;;;;;;;3.95;1.15;;;;;;;9.42;71.41;100644.94;5011553;28;20149;-63
2023/01/05 13:37:27;;;;;;;4.63;1.05;;;;;;;9.36;70.59;100660.06;5008109;28;20074;-63
2023/01/05 13:40:11;;;;;;;5.35;0.90;;;;;;;9.17;71.00;100648.84;5006573;28;20054;-63
2023/01/05 13:42:41;;;;;;;7.82;1.15;;;;;;;9.07;70.68;100673.91;5008440;28;20053;-63
2023/01/05 13:45:39;;;;;;;6.18;1.05;;;;;;;8.97;71.63;100681.41;4989384;28;20088;-62
2023/01/05 13:48:35;;;;;;;3.53;1.00;;;;;;;8.84;71.90;100685.59;5011672;28;20494;-61
2023/01/05 13:51:46;;;;;;;4.50;1.00;;;;;;;8.72;72.00;100694.06;4992499;28;20056;-60
2023/01/05 13:54:35;;;;;;;7.97;1.45;;;;;;;8.65;72.90;100690.91;5013833;28;20498;-60
2023/01/05 13:57:25;;;;;;;5.65;1.13;;;;;;;8.62;73.51;100705.03;5012697;28;20145;-59
2023/01/05 13:59:58;;;;;;;3.13;0.80;;;;;;;8.60;73.26;100703.38;4996373;28;20050;-61
2023/01/05 14:02:37;;;;;;;3.90;1.45;;;;;;;8.41;74.01;100716.56;5000356;28;20057;-60
2023/01/05 14:05:14;;;;;;;6.35;0.88;;;;;;;8.40;73.93;100708.78;5003360;28;20160;-61
2023/01/05 14:07:42;;;;;;;3.67;1.20;;;;;;;8.37;74.03;100722.88;5003936;28;20046;-59
2023/01/05 14:10:38;;;;;;;3.00;0.70;;;;;;;8.18;74.40;100728.13;5009109;28;20064;-62
2023/01/05 14:13:41;;;;;;;5.93;1.08;;;;;;;8.16;74.58;100723.91;4973592;28;20050;-62
2023/01/05 14:16:33;;;;;;;4.85;1.20;;;;;;;8.05;75.08;100733.09;5008699;28;20050;-60
2023/01/05 14:19:21;;;;;;;2.80;1.25;;;;;;;8.02;75.48;100737.66;5007628;28;20129;-60
2023/01/05 14:21:48;;;;;;;4.43;1.10;;;;;;;8.02;76.28;100745.53;5003655;28;20054;-60
2023/01/05 14:24:38;;;;;;;5.82;1.23;;;;;;;8.01;76.49;100736.78;5008151;28;20084;-62
2023/01/05 14:27:21;;;;;;;8.15;1.30;;;;;;;7.94;76.30;100748.47;5007377;28;20248;-63
2023/01/05 14:29:48;;;;;;;3.53;0.82;;;;;;;7.85;76.14;100748.91;4989827;28;20205;-63
2023/01/05 14:32:29;;;;;;;4.43;1.30;;;;;;;7.80;76.25;100759.59;5010328;28;20650;-62
2023/01/05 14:35:43;;;;;;;3.70;0.93;;;;;;;7.73;76.05;100788.75;4992275;28;20041;-62
2023/01/05 14:55:26;;;;;;;7.80;0.93;;;;;;;7.41;77.88;100832.94;4927235;29;20524;-62
2023/01/05 15:16:32;;;;;;;3.30;1.17;;;;;;;7.28;79.20;100891.97;5004983;28;20037;-61
2023/01/05 18:26:31;;;;;;;8.50;2.15;;;;;;;6.56;82.01;101154.63;5020191;28;20140;-62
2023/01/05 21:34:49;;;;;;;6.88;2.30;;;;;;;5.76;84.23;101348.78;5031325;28;20091;-62
2023/01/05 21:37:16;;;;;;;6.82;1.50;;;;;;;5.70;83.74;101347.19;5036208;28;20478;-62
2023/01/05 21:39:43;;;;;;;5.95;1.75;;;;;;;5.69;84.39;101350.69;5031361;28;20081;-65
2023/01/05 23:02:51;;;;;;;3.97;1.58;;;;;;;5.41;84.24;101383.69;5033056;28;20045;-65
2023/01/05 23:14:58;;;;;;;5.40;1.30;;;;;;;5.25;84.48;101385.78;5025444;28;20138;-64
